createdAt,value
2018-01-21T00:00:48.036Z,20.68
2018-01-21T00:01:48.063Z,20.71
2018-01-21T00:02:48.444Z,20.69
2018-01-21T00:03:48.125Z,20.71
2018-01-21T00:04:48.161Z,20.66
2018-01-21T00:05:48.194Z,20.71
2018-01-21T00:06:48.226Z,20.68
2018-01-21T00:07:48.247Z,20.72
2018-01-21T00:09:48.616Z,20.69
2018-01-21T00:10:49.386Z,20.71
2018-01-21T00:11:48.373Z,20.69
2018-01-21T00:12:48.401Z,20.69
2018-01-21T00:14:48.462Z,20.72
2018-01-21T00:15:48.852Z,20.71
2018-01-21T00:16:48.559Z,20.72
2018-01-21T00:17:48.556Z,20.71
2018-01-21T00:18:48.588Z,20.72
2018-01-21T00:19:48.668Z,20.73
2018-01-21T00:20:48.649Z,20.66
2018-01-21T00:21:49.008Z,20.66
2018-01-21T00:22:49.061Z,20.71
2018-01-21T00:23:48.754Z,20.68
2018-01-21T00:24:48.773Z,20.72
2018-01-21T00:25:48.804Z,20.73
2018-01-21T00:26:48.882Z,20.71
2018-01-21T00:27:48.875Z,20.72
2018-01-21T00:28:48.893Z,20.79
2018-01-21T00:30:49.256Z,20.73
2018-01-21T00:31:49.003Z,20.76
2018-01-21T00:32:49.019Z,20.75
2018-01-21T00:33:49.051Z,20.83
2018-01-21T00:34:49.077Z,20.85
2018-01-21T00:35:49.111Z,20.85
2018-01-21T00:36:49.144Z,20.75
2018-01-21T00:37:49.478Z,20.76
2018-01-21T00:38:49.204Z,20.75
2018-01-21T00:39:49.237Z,20.79
2018-01-21T00:40:49.278Z,20.85
2018-01-21T00:41:49.294Z,20.79
2018-01-21T00:42:49.331Z,20.82
2018-01-21T00:43:49.356Z,20.78
2018-01-21T00:44:49.739Z,20.85
2018-01-21T00:45:49.424Z,20.72
2018-01-21T00:46:49.462Z,20.82
2018-01-21T00:47:49.493Z,20.85
2018-01-21T00:48:49.513Z,20.78
2018-01-21T00:49:49.542Z,20.79
2018-01-21T00:50:49.577Z,20.81
2018-01-21T00:51:49.985Z,20.81
2018-01-21T00:52:49.643Z,20.79
2018-01-21T00:53:49.665Z,20.82
2018-01-21T00:54:49.752Z,20.78
2018-01-21T00:55:49.725Z,20.83
2018-01-21T00:56:49.758Z,20.75
2018-01-21T00:57:49.801Z,20.78
2018-01-21T00:58:50.116Z,20.82
2018-01-21T00:59:49.858Z,20.83
2018-01-21T01:00:49.878Z,20.83
2018-01-21T01:01:49.913Z,20.83
2018-01-21T01:02:49.950Z,20.83
2018-01-21T01:03:49.973Z,20.76
2018-01-21T01:04:50.045Z,20.79
2018-01-21T01:05:50.386Z,20.81
2018-01-21T01:06:50.128Z,20.82
2018-01-21T01:07:50.105Z,20.79
2018-01-21T01:09:50.160Z,20.83
2018-01-21T01:10:50.238Z,20.85
2018-01-21T01:11:50.219Z,20.78
2018-01-21T01:12:50.623Z,20.79
2018-01-21T01:13:50.308Z,20.76
2018-01-21T01:14:50.358Z,20.78
2018-01-21T01:15:50.361Z,20.78
2018-01-21T01:16:50.379Z,20.81
2018-01-21T01:17:50.403Z,20.81
2018-01-21T01:18:50.470Z,20.79
2018-01-21T01:19:50.822Z,20.82
2018-01-21T01:20:50.498Z,20.78
2018-01-21T01:21:50.526Z,20.78
2018-01-21T01:22:50.566Z,20.82
2018-01-21T01:23:50.623Z,20.83
2018-01-21T01:24:50.619Z,20.82
2018-01-21T01:25:50.655Z,20.83
2018-01-21T01:26:50.990Z,20.85
2018-01-21T01:27:50.711Z,20.75
2018-01-21T01:28:50.746Z,20.79
2018-01-21T01:29:50.773Z,20.83
2018-01-21T01:31:52.042Z,20.73
2018-01-21T01:32:50.870Z,20.76
2018-01-21T01:33:51.254Z,20.88
2018-01-21T01:34:50.928Z,20.78
2018-01-21T01:35:50.962Z,20.83
2018-01-21T01:36:50.991Z,20.83
2018-01-21T01:37:51.027Z,20.81
2018-01-21T01:38:51.057Z,20.81
2018-01-21T01:39:51.135Z,20.83
2018-01-21T01:40:51.475Z,20.81
2018-01-21T01:41:51.150Z,20.79
2018-01-21T01:42:51.239Z,20.81
2018-01-21T01:43:51.208Z,20.81
2018-01-21T01:44:51.238Z,20.76
2018-01-21T01:45:51.270Z,20.73
2018-01-21T01:46:51.300Z,20.78
2018-01-21T01:47:51.678Z,20.73
2018-01-21T01:48:51.371Z,20.79
2018-01-21T01:49:51.392Z,20.81
2018-01-21T01:50:51.418Z,20.78
2018-01-21T01:51:51.455Z,20.75
2018-01-21T01:52:51.487Z,20.76
2018-01-21T01:53:51.512Z,20.78
2018-01-21T01:54:51.851Z,20.72
2018-01-21T01:55:51.579Z,20.76
2018-01-21T01:56:53.217Z,20.75
2018-01-21T01:57:51.637Z,20.76
2018-01-21T01:58:51.735Z,20.73
2018-01-21T01:59:51.695Z,20.69
2018-01-21T02:00:51.734Z,20.73
2018-01-21T02:01:53.187Z,20.69
2018-01-21T02:02:51.984Z,20.73
2018-01-21T02:03:51.822Z,20.69
2018-01-21T02:04:51.855Z,20.76
2018-01-21T02:05:51.892Z,20.73
2018-01-21T02:06:51.915Z,20.68
2018-01-21T02:07:51.951Z,20.73
2018-01-21T02:08:52.327Z,20.64
2018-01-21T02:10:52.052Z,20.71
2018-01-21T02:11:52.066Z,20.75
2018-01-21T02:12:52.092Z,20.71
2018-01-21T02:13:52.138Z,20.71
2018-01-21T02:14:52.598Z,20.73
2018-01-21T02:15:52.186Z,20.71
2018-01-21T02:16:52.264Z,20.69
2018-01-21T02:17:52.268Z,20.78
2018-01-21T02:18:52.288Z,20.76
2018-01-21T02:19:52.323Z,20.66
2018-01-21T02:20:52.672Z,20.78
2018-01-21T02:21:52.443Z,20.73
2018-01-21T02:22:52.422Z,20.71
2018-01-21T02:23:52.434Z,20.71
2018-01-21T02:25:52.504Z,20.73
2018-01-21T02:27:52.962Z,20.63
2018-01-21T02:28:52.586Z,20.71
2018-01-21T02:29:52.630Z,20.72
2018-01-21T02:30:52.648Z,20.68
2018-01-21T02:31:52.730Z,20.75
2018-01-21T02:32:52.709Z,20.64
2018-01-21T02:33:53.134Z,20.73
2018-01-21T02:34:52.787Z,20.61
2018-01-21T02:35:52.815Z,20.69
2018-01-21T02:37:52.868Z,20.61
2018-01-21T02:38:52.894Z,20.61
2018-01-21T02:39:52.933Z,20.69
2018-01-21T02:40:53.287Z,20.66
2018-01-21T02:41:52.992Z,20.60
2018-01-21T02:42:53.025Z,20.72
2018-01-21T02:43:53.054Z,20.61
2018-01-21T02:44:54.003Z,20.69
2018-01-21T02:46:53.143Z,20.68
2018-01-21T02:47:53.528Z,20.61
2018-01-21T02:48:53.201Z,20.72
2018-01-21T02:49:53.235Z,20.63
2018-01-21T02:50:53.263Z,20.61
2018-01-21T02:51:53.348Z,20.64
2018-01-21T02:52:53.342Z,20.58
2018-01-21T02:53:53.365Z,20.68
2018-01-21T02:54:53.739Z,20.63
2018-01-21T02:55:53.415Z,20.68
2018-01-21T02:57:53.484Z,20.72
2018-01-21T02:58:53.513Z,20.64
2018-01-21T03:00:53.581Z,20.60
2018-01-21T03:01:53.954Z,20.60
2018-01-21T03:02:53.631Z,20.61
2018-01-21T03:03:53.663Z,20.64
2018-01-21T03:04:53.980Z,20.64
2018-01-21T03:05:53.727Z,20.68
2018-01-21T03:06:53.788Z,20.60
2018-01-21T03:07:53.792Z,20.72
2018-01-21T03:08:54.173Z,20.64
2018-01-21T03:09:53.869Z,20.60
2018-01-21T03:10:53.932Z,20.61
2018-01-21T03:11:53.924Z,20.64
2018-01-21T03:12:53.948Z,20.58
2018-01-21T03:13:53.978Z,20.64
2018-01-21T03:14:54.057Z,20.72
2018-01-21T03:15:54.384Z,20.64
2018-01-21T03:16:54.078Z,20.61
2018-01-21T03:17:54.092Z,20.63
2018-01-21T03:18:54.125Z,20.60
2018-01-21T03:19:54.156Z,20.73
2018-01-21T03:20:54.189Z,20.68
2018-01-21T03:21:54.280Z,20.71
2018-01-21T03:22:54.252Z,20.73
2018-01-21T03:23:54.274Z,20.69
2018-01-21T03:24:54.309Z,20.68
2018-01-21T03:25:54.348Z,20.69
2018-01-21T03:26:54.384Z,20.73
2018-01-21T03:27:54.403Z,20.75
2018-01-21T03:28:54.788Z,20.71
2018-01-21T03:29:54.466Z,20.64
2018-01-21T03:30:54.511Z,20.75
2018-01-21T03:31:54.579Z,20.64
2018-01-21T03:32:54.555Z,20.75
2018-01-21T03:33:54.859Z,20.69
2018-01-21T03:34:54.971Z,20.68
2018-01-21T03:35:54.644Z,20.61
2018-01-21T03:36:54.684Z,20.71
2018-01-21T03:37:54.721Z,20.58
2018-01-21T03:38:54.794Z,20.66
2018-01-21T03:39:54.773Z,20.75
2018-01-21T03:40:55.110Z,20.69
2018-01-21T03:41:55.128Z,20.61
2018-01-21T03:42:54.869Z,20.66
2018-01-21T03:44:54.922Z,20.61
2018-01-21T03:45:55.965Z,20.64
2018-01-21T03:46:55.286Z,20.68
2018-01-21T03:48:55.043Z,20.61
2018-01-21T03:49:55.077Z,20.72
2018-01-21T03:50:55.106Z,20.66
2018-01-21T03:51:55.153Z,20.64
2018-01-21T03:52:55.168Z,20.73
2018-01-21T03:54:55.579Z,20.71
2018-01-21T03:55:55.260Z,20.71
2018-01-21T03:56:55.348Z,20.71
2018-01-21T03:58:55.386Z,20.68
2018-01-21T03:59:55.403Z,20.73
2018-01-21T04:01:55.787Z,20.71
2018-01-21T04:02:56.282Z,20.71
2018-01-21T04:03:55.506Z,20.71
2018-01-21T04:04:55.542Z,20.71
2018-01-21T04:05:55.573Z,20.72
2018-01-21T04:06:55.603Z,20.58
2018-01-21T04:08:56.016Z,20.60
2018-01-21T04:09:55.747Z,20.71
2018-01-21T04:10:55.759Z,20.61
2018-01-21T04:11:55.750Z,20.71
2018-01-21T04:12:55.801Z,20.71
2018-01-21T04:13:55.863Z,20.64
2018-01-21T04:14:55.846Z,20.73
2018-01-21T04:15:56.262Z,20.63
2018-01-21T04:16:55.904Z,20.73
2018-01-21T04:17:55.935Z,20.69
2018-01-21T04:18:55.984Z,20.76
2018-01-21T04:19:56.002Z,20.71
2018-01-21T04:21:56.103Z,20.69
2018-01-21T04:22:56.444Z,20.63
2018-01-21T04:23:56.644Z,20.66
2018-01-21T04:24:56.155Z,20.76
2018-01-21T04:26:56.211Z,20.66
2018-01-21T04:27:56.259Z,20.71
2018-01-21T04:28:56.285Z,20.72
2018-01-21T04:29:56.655Z,20.72
2018-01-21T04:30:56.341Z,20.68
2018-01-21T04:31:56.491Z,20.72
2018-01-21T04:32:56.398Z,20.69
2018-01-21T04:33:56.447Z,20.75
2018-01-21T04:34:56.455Z,20.69
2018-01-21T04:35:56.490Z,20.66
2018-01-21T04:36:56.876Z,20.63
2018-01-21T04:37:56.552Z,20.71
2018-01-21T04:38:56.586Z,20.64
2018-01-21T04:39:56.611Z,20.73
2018-01-21T04:40:56.653Z,20.69
2018-01-21T04:41:56.690Z,20.71
2018-01-21T04:42:56.734Z,20.64
2018-01-21T04:43:57.036Z,20.69
2018-01-21T04:44:56.766Z,20.72
2018-01-21T04:45:56.804Z,20.71
2018-01-21T04:46:56.832Z,20.69
2018-01-21T04:47:56.885Z,20.71
2018-01-21T04:48:56.956Z,20.69
2018-01-21T04:49:56.920Z,20.72
2018-01-21T04:50:57.335Z,20.63
2018-01-21T04:51:56.991Z,20.69
2018-01-21T04:52:57.012Z,20.63
2018-01-21T04:53:57.093Z,20.71
2018-01-21T04:54:57.076Z,20.76
2018-01-21T04:55:57.115Z,20.66
2018-01-21T04:56:57.138Z,20.66
2018-01-21T04:57:57.520Z,20.71
2018-01-21T04:58:57.200Z,20.71
2018-01-21T04:59:57.232Z,20.76
2018-01-21T05:00:57.269Z,20.73
2018-01-21T05:01:57.290Z,20.72
2018-01-21T05:02:57.322Z,20.68
2018-01-21T05:03:57.397Z,20.72
2018-01-21T05:04:57.680Z,20.72
2018-01-21T05:05:57.425Z,20.78
2018-01-21T05:06:57.442Z,20.75
2018-01-21T05:07:57.478Z,20.69
2018-01-21T05:08:57.564Z,20.66
2018-01-21T05:09:57.535Z,20.71
2018-01-21T05:10:57.563Z,20.76
2018-01-21T05:11:57.953Z,20.71
2018-01-21T05:12:57.671Z,20.75
2018-01-21T05:13:57.672Z,20.68
2018-01-21T05:14:57.688Z,20.60
2018-01-21T05:15:57.722Z,20.66
2018-01-21T05:16:57.748Z,20.61
2018-01-21T05:17:57.781Z,20.72
2018-01-21T05:18:58.361Z,20.69
2018-01-21T05:19:57.864Z,20.72
2018-01-21T05:20:57.875Z,20.71
2018-01-21T05:21:57.905Z,20.71
2018-01-21T05:22:57.933Z,20.63
2018-01-21T05:24:58.008Z,20.61
2018-01-21T05:25:58.472Z,20.75
2018-01-21T05:26:58.062Z,20.64
2018-01-21T05:27:58.151Z,20.64
2018-01-21T05:28:58.120Z,20.66
2018-01-21T05:29:58.154Z,20.73
2018-01-21T05:30:58.195Z,20.69
2018-01-21T05:31:58.209Z,20.69
2018-01-21T05:32:58.546Z,20.75
2018-01-21T05:33:58.640Z,20.68
2018-01-21T05:34:58.303Z,20.57
2018-01-21T05:35:58.335Z,20.68
2018-01-21T05:37:58.447Z,20.69
2018-01-21T05:38:58.429Z,20.64
2018-01-21T05:39:58.809Z,20.61
2018-01-21T05:40:58.485Z,20.68
2018-01-21T05:41:58.518Z,20.68
2018-01-21T05:42:58.599Z,20.64
2018-01-21T05:43:58.578Z,20.69
2018-01-21T05:44:58.610Z,20.73
2018-01-21T05:45:58.644Z,20.71
2018-01-21T05:46:59.020Z,20.58
2018-01-21T05:47:58.713Z,20.71
2018-01-21T05:48:58.858Z,20.71
2018-01-21T05:49:58.759Z,20.66
2018-01-21T05:50:58.808Z,20.71
2018-01-21T05:51:58.843Z,20.61
2018-01-21T05:52:59.255Z,20.69
2018-01-21T05:53:58.884Z,20.79
2018-01-21T05:54:59.003Z,20.69
2018-01-21T05:55:59.002Z,20.58
2018-01-21T05:56:58.979Z,20.72
2018-01-21T05:57:59.030Z,20.75
2018-01-21T05:58:59.395Z,20.72
2018-01-21T05:59:59.100Z,20.69
2018-01-21T06:00:59.167Z,20.72
2018-01-21T06:01:59.132Z,20.68
2018-01-21T06:03:59.196Z,20.69
2018-01-21T06:04:59.554Z,20.71
2018-01-21T06:05:59.264Z,20.75
2018-01-21T06:06:59.396Z,20.66
2018-01-21T06:07:59.344Z,20.61
2018-01-21T06:08:59.355Z,20.66
2018-01-21T06:09:59.380Z,20.58
2018-01-21T06:10:59.424Z,20.68
2018-01-21T06:11:59.790Z,20.66
2018-01-21T06:12:59.727Z,20.64
2018-01-21T06:13:59.518Z,20.69
2018-01-21T06:14:59.532Z,20.69
2018-01-21T06:15:59.561Z,20.75
2018-01-21T06:16:59.645Z,20.64
2018-01-21T06:17:59.630Z,20.72
2018-01-21T06:19:00.031Z,20.68
2018-01-21T06:19:59.683Z,20.68
2018-01-21T06:20:59.724Z,20.71
2018-01-21T06:21:59.770Z,20.63
2018-01-21T06:22:59.782Z,20.66
2018-01-21T06:23:59.803Z,20.72
2018-01-21T06:24:59.838Z,20.71
2018-01-21T06:26:00.169Z,20.61
2018-01-21T06:26:59.934Z,20.61
2018-01-21T06:27:59.950Z,20.63
2018-01-21T06:28:59.962Z,20.64
2018-01-21T06:29:59.990Z,20.61
2018-01-21T06:31:00.028Z,20.68
2018-01-21T06:32:00.063Z,20.68
2018-01-21T06:33:00.439Z,20.69
2018-01-21T06:34:00.125Z,20.61
2018-01-21T06:35:00.159Z,20.75
2018-01-21T06:36:01.739Z,20.66
2018-01-21T06:37:00.222Z,20.66
2018-01-21T06:38:00.293Z,20.64
2018-01-21T06:39:00.317Z,20.61
2018-01-21T06:40:00.645Z,20.66
2018-01-21T06:41:00.335Z,20.73
2018-01-21T06:42:00.400Z,20.73
2018-01-21T06:43:00.396Z,20.68
2018-01-21T06:44:00.418Z,20.64
2018-01-21T06:45:00.466Z,20.75
2018-01-21T06:46:00.504Z,20.58
2018-01-21T06:47:00.865Z,20.71
2018-01-21T06:48:00.548Z,20.71
2018-01-21T06:49:00.577Z,20.73
2018-01-21T06:50:00.604Z,20.68
2018-01-21T06:51:00.649Z,20.71
2018-01-21T06:52:00.723Z,20.69
2018-01-21T06:53:00.701Z,20.69
2018-01-21T06:54:01.125Z,20.72
2018-01-21T06:55:00.773Z,20.58
2018-01-21T06:56:00.785Z,20.72
2018-01-21T06:57:00.822Z,20.68
2018-01-21T06:58:00.850Z,20.73
2018-01-21T06:59:00.897Z,20.73
2018-01-21T07:00:00.914Z,20.61
2018-01-21T07:01:01.243Z,20.69
2018-01-21T07:02:00.974Z,20.69
2018-01-21T07:03:01.008Z,20.72
2018-01-21T07:04:01.036Z,20.73
2018-01-21T07:05:01.063Z,20.73
2018-01-21T07:06:01.117Z,20.66
2018-01-21T07:07:01.130Z,20.69
2018-01-21T07:08:01.515Z,20.66
2018-01-21T07:09:01.195Z,20.69
2018-01-21T07:10:01.220Z,20.72
2018-01-21T07:11:01.250Z,20.68
2018-01-21T07:12:01.292Z,20.71
2018-01-21T07:13:01.333Z,20.73
2018-01-21T07:14:01.346Z,20.79
2018-01-21T07:15:01.675Z,20.71
2018-01-21T07:16:01.442Z,20.69
2018-01-21T07:17:01.458Z,20.73
2018-01-21T07:18:01.465Z,20.73
2018-01-21T07:19:01.494Z,20.71
2018-01-21T07:20:01.554Z,20.75
2018-01-21T07:21:01.565Z,20.75
2018-01-21T07:22:01.935Z,20.73
2018-01-21T07:23:01.619Z,20.72
2018-01-21T07:24:01.654Z,20.69
2018-01-21T07:25:01.692Z,20.79
2018-01-21T07:26:01.714Z,20.79
2018-01-21T07:27:01.739Z,20.78
2018-01-21T07:28:01.788Z,20.78
2018-01-21T07:29:02.166Z,20.72
2018-01-21T07:30:01.835Z,20.76
2018-01-21T07:31:01.860Z,20.78
2018-01-21T07:32:01.893Z,20.76
2018-01-21T07:33:01.929Z,20.76
2018-01-21T07:34:01.965Z,20.78
2018-01-21T07:36:02.021Z,20.83
2018-01-21T07:37:02.398Z,20.82
2018-01-21T07:38:02.092Z,20.79
2018-01-21T07:39:02.108Z,20.79
2018-01-21T07:40:02.142Z,20.83
2018-01-21T07:41:03.390Z,20.79
2018-01-21T07:42:02.201Z,20.85
2018-01-21T07:43:02.252Z,20.83
2018-01-21T07:44:02.851Z,20.79
2018-01-21T07:45:02.292Z,20.85
2018-01-21T07:46:02.328Z,20.85
2018-01-21T07:47:02.356Z,20.85
2018-01-21T07:48:02.388Z,20.73
2018-01-21T07:49:02.474Z,20.81
2018-01-21T07:50:02.487Z,20.87
2018-01-21T07:51:02.827Z,20.85
2018-01-21T07:52:02.527Z,20.79
2018-01-21T07:53:02.541Z,20.88
2018-01-21T07:54:02.574Z,20.83
2018-01-21T07:55:02.604Z,20.85
2018-01-21T07:56:04.101Z,20.85
2018-01-21T07:57:02.669Z,20.85
2018-01-21T07:58:03.049Z,20.87
2018-01-21T07:59:04.395Z,20.88
2018-01-21T08:00:02.773Z,20.83
2018-01-21T08:01:02.789Z,20.88
2018-01-21T08:02:02.820Z,20.81
2018-01-21T08:03:02.848Z,20.87
2018-01-21T08:04:02.878Z,20.87
2018-01-21T08:05:03.212Z,20.83
2018-01-21T08:06:02.941Z,20.83
2018-01-21T08:07:03.004Z,20.83
2018-01-21T08:08:03.016Z,20.83
2018-01-21T08:09:03.052Z,20.85
2018-01-21T08:10:03.141Z,20.85
2018-01-21T08:11:03.463Z,20.85
2018-01-21T08:12:03.128Z,20.87
2018-01-21T08:13:03.171Z,20.85
2018-01-21T08:14:03.192Z,20.87
2018-01-21T08:15:03.217Z,20.85
2018-01-21T08:16:03.259Z,20.82
2018-01-21T08:17:03.636Z,20.85
2018-01-21T08:18:03.314Z,20.82
2018-01-21T08:19:03.344Z,20.90
2018-01-21T08:20:03.378Z,20.85
2018-01-21T08:21:03.408Z,20.91
2018-01-21T08:22:09.901Z,20.90
2018-01-21T08:23:03.815Z,20.93
2018-01-21T08:24:03.495Z,20.83
2018-01-21T08:26:03.577Z,20.87
2018-01-21T08:27:03.592Z,20.93
2018-01-21T08:28:03.618Z,20.87
2018-01-21T08:30:03.699Z,20.96
2018-01-21T08:31:04.074Z,20.85
2018-01-21T08:32:03.745Z,20.98
2018-01-21T08:33:03.785Z,21.01
2018-01-21T08:34:03.870Z,20.88
2018-01-21T08:35:03.835Z,20.91
2018-01-21T08:36:03.865Z,20.97
2018-01-21T08:37:04.202Z,20.96
2018-01-21T08:38:03.989Z,21.00
2018-01-21T08:39:03.960Z,21.00
2018-01-21T08:40:03.991Z,20.94
2018-01-21T08:41:04.021Z,20.94
2018-01-21T08:42:04.067Z,20.93
2018-01-21T08:43:04.081Z,20.85
2018-01-21T08:44:04.465Z,20.85
2018-01-21T08:45:04.147Z,20.88
2018-01-21T08:46:04.186Z,21.01
2018-01-21T08:47:04.207Z,20.90
2018-01-21T08:48:04.241Z,20.96
2018-01-21T08:49:04.269Z,21.01
2018-01-21T08:50:04.306Z,20.88
2018-01-21T08:51:04.690Z,20.88
2018-01-21T08:52:04.361Z,20.87
2018-01-21T08:53:04.395Z,20.85
2018-01-21T08:54:04.422Z,20.94
2018-01-21T08:55:06.057Z,21.08
2018-01-21T08:56:04.489Z,20.90
2018-01-21T08:57:04.521Z,21.06
2018-01-21T08:58:04.908Z,20.96
2018-01-21T09:00:04.619Z,20.96
2018-01-21T09:01:04.641Z,20.98
2018-01-21T09:03:04.703Z,20.93
2018-01-21T09:04:04.739Z,20.91
2018-01-21T09:05:05.069Z,20.98
2018-01-21T09:06:04.811Z,20.96
2018-01-21T09:07:04.841Z,20.97
2018-01-21T09:08:04.894Z,21.00
2018-01-21T09:09:04.946Z,20.98
2018-01-21T09:10:04.926Z,21.00
2018-01-21T09:11:04.964Z,21.01
2018-01-21T09:12:05.348Z,20.97
2018-01-21T09:13:05.020Z,21.00
2018-01-21T09:14:05.059Z,20.97
2018-01-21T09:15:05.143Z,20.96
2018-01-21T09:16:05.105Z,21.00
2018-01-21T09:17:06.376Z,20.96
2018-01-21T09:19:05.202Z,20.97
2018-01-21T09:20:05.602Z,21.01
2018-01-21T09:21:05.332Z,21.03
2018-01-21T09:22:05.299Z,21.03
2018-01-21T09:23:05.323Z,20.98
2018-01-21T09:24:05.361Z,21.08
2018-01-21T09:25:05.390Z,21.03
2018-01-21T09:26:05.421Z,21.05
2018-01-21T09:27:05.799Z,21.03
2018-01-21T09:28:05.485Z,21.01
2018-01-21T09:29:05.516Z,21.08
2018-01-21T09:30:05.562Z,21.12
2018-01-21T09:31:05.579Z,21.05
2018-01-21T09:32:05.624Z,21.01
2018-01-21T09:33:05.636Z,21.01
2018-01-21T09:34:06.031Z,21.00
2018-01-21T09:35:05.699Z,21.08
2018-01-21T09:36:05.766Z,21.03
2018-01-21T09:37:05.771Z,21.03
2018-01-21T09:38:05.846Z,21.09
2018-01-21T09:39:05.822Z,21.06
2018-01-21T09:40:05.852Z,21.09
2018-01-21T09:41:06.234Z,21.12
2018-01-21T09:42:05.916Z,21.06
2018-01-21T09:43:05.955Z,21.13
2018-01-21T09:44:05.983Z,21.19
2018-01-21T09:45:06.029Z,21.11
2018-01-21T09:46:06.119Z,21.09
2018-01-21T09:47:06.115Z,21.16
2018-01-21T09:48:06.457Z,21.12
2018-01-21T09:49:06.134Z,21.08
2018-01-21T09:50:06.173Z,21.12
2018-01-21T09:51:06.839Z,21.16
2018-01-21T09:52:06.229Z,21.11
2018-01-21T09:53:06.267Z,21.21
2018-01-21T09:54:06.305Z,21.16
2018-01-21T09:56:06.351Z,21.16
2018-01-21T09:57:06.453Z,21.16
2018-01-21T09:58:06.426Z,21.21
2018-01-21T09:59:06.448Z,21.19
2018-01-21T10:00:06.478Z,21.15
2018-01-21T10:01:06.515Z,21.21
2018-01-21T10:02:06.913Z,21.22
2018-01-21T10:04:06.611Z,21.15
2018-01-21T10:05:06.730Z,21.13
2018-01-21T10:06:06.668Z,21.13
2018-01-21T10:07:06.713Z,21.15
2018-01-21T10:08:06.844Z,21.15
2018-01-21T10:09:07.110Z,21.22
2018-01-21T10:10:06.805Z,21.13
2018-01-21T10:11:06.832Z,21.15
2018-01-21T10:12:06.877Z,21.12
2018-01-21T10:13:07.002Z,21.15
2018-01-21T10:14:06.919Z,21.19
2018-01-21T10:15:07.208Z,21.21
2018-01-21T10:16:07.315Z,21.22
2018-01-21T10:17:07.118Z,21.16
2018-01-21T10:18:07.065Z,21.15
2018-01-21T10:19:07.094Z,21.13
2018-01-21T10:20:07.113Z,21.13
2018-01-21T10:21:07.273Z,21.16
2018-01-21T10:22:07.517Z,21.26
2018-01-21T10:23:07.204Z,21.18
2018-01-21T10:24:07.247Z,21.27
2018-01-21T10:25:07.286Z,21.28
2018-01-21T10:26:07.294Z,21.27
2018-01-21T10:27:07.381Z,21.16
2018-01-21T10:28:07.707Z,21.27
2018-01-21T10:29:08.375Z,21.27
2018-01-21T10:30:07.422Z,21.28
2018-01-21T10:31:07.453Z,21.28
2018-01-21T10:32:07.484Z,21.19
2018-01-21T10:33:07.513Z,21.30
2018-01-21T10:34:07.850Z,21.30
2018-01-21T10:35:07.589Z,21.21
2018-01-21T10:36:07.613Z,21.31
2018-01-21T10:37:07.643Z,21.30
2018-01-21T10:38:07.673Z,21.33
2018-01-21T10:39:07.759Z,21.33
2018-01-21T10:40:07.734Z,21.31
2018-01-21T10:41:08.117Z,21.34
2018-01-21T10:42:07.796Z,21.36
2018-01-21T10:43:07.847Z,21.36
2018-01-21T10:44:07.858Z,21.38
2018-01-21T10:45:07.898Z,21.34
2018-01-21T10:46:07.923Z,21.34
2018-01-21T10:47:07.955Z,21.22
2018-01-21T10:48:08.288Z,21.28
2018-01-21T10:49:08.020Z,21.36
2018-01-21T10:50:08.072Z,21.34
2018-01-21T10:51:08.091Z,21.33
2018-01-21T10:53:08.149Z,21.36
2018-01-21T10:54:08.183Z,21.34
2018-01-21T10:55:08.568Z,21.37
2018-01-21T10:56:09.686Z,21.33
2018-01-21T10:57:08.267Z,21.31
2018-01-21T10:58:08.306Z,21.33
2018-01-21T10:59:08.391Z,21.28
2018-01-21T11:00:08.363Z,21.31
2018-01-21T11:01:08.397Z,21.33
2018-01-21T11:02:08.787Z,21.38
2018-01-21T11:03:08.458Z,21.31
2018-01-21T11:04:08.508Z,21.37
2018-01-21T11:05:08.539Z,21.30
2018-01-21T11:06:08.565Z,21.34
2018-01-21T11:07:08.584Z,21.33
2018-01-21T11:08:08.624Z,21.38
2018-01-21T11:09:09.004Z,21.34
2018-01-21T11:10:08.688Z,21.40
2018-01-21T11:11:08.710Z,21.34
2018-01-21T11:12:08.825Z,21.40
2018-01-21T11:13:08.784Z,21.37
2018-01-21T11:14:08.804Z,21.38
2018-01-21T11:15:08.864Z,21.43
2018-01-21T11:16:09.277Z,21.38
2018-01-21T11:17:08.950Z,21.34
2018-01-21T11:18:08.936Z,21.45
2018-01-21T11:19:08.967Z,21.42
2018-01-21T11:20:08.996Z,21.46
2018-01-21T11:21:09.026Z,21.45
2018-01-21T11:22:09.060Z,21.42
2018-01-21T11:23:09.444Z,21.48
2018-01-21T11:24:09.134Z,21.42
2018-01-21T11:26:09.185Z,21.49
2018-01-21T11:27:09.233Z,21.46
2018-01-21T11:28:09.277Z,21.52
2018-01-21T11:29:09.291Z,21.52
2018-01-21T11:30:09.611Z,21.48
2018-01-21T11:32:09.380Z,21.52
2018-01-21T11:33:09.407Z,21.49
2018-01-21T11:34:09.440Z,21.43
2018-01-21T11:35:09.469Z,21.48
2018-01-21T11:36:09.502Z,21.46
2018-01-21T11:37:09.881Z,21.48
2018-01-21T11:38:09.572Z,21.48
2018-01-21T11:39:09.597Z,21.46
2018-01-21T11:42:09.699Z,21.49
2018-01-21T11:44:10.146Z,21.43
2018-01-21T11:45:09.833Z,21.49
2018-01-21T11:47:10.824Z,21.58
2018-01-21T11:48:09.881Z,21.52
2018-01-21T11:49:09.922Z,21.52
2018-01-21T11:50:09.957Z,21.55
2018-01-21T11:51:10.346Z,21.52
2018-01-21T11:52:10.008Z,21.53
2018-01-21T11:53:10.048Z,21.56
2018-01-21T11:54:10.074Z,21.52
2018-01-21T11:55:10.105Z,21.52
2018-01-21T11:56:10.159Z,21.58
2018-01-21T11:57:10.176Z,21.58
2018-01-21T11:58:10.558Z,21.58
2018-01-21T11:59:10.235Z,21.58
2018-01-21T12:00:10.268Z,21.67
2018-01-21T12:01:10.331Z,21.55
2018-01-21T12:02:10.326Z,21.68
2018-01-21T12:03:10.358Z,21.70
2018-01-21T12:04:10.423Z,21.68
2018-01-21T12:05:10.768Z,21.71
2018-01-21T12:06:10.461Z,21.70
2018-01-21T12:08:10.529Z,21.74
2018-01-21T12:09:10.552Z,21.74
2018-01-21T12:10:10.599Z,21.71
2018-01-21T12:11:10.992Z,21.75
2018-01-21T12:12:10.656Z,21.71
2018-01-21T12:13:10.722Z,21.73
2018-01-21T12:14:10.710Z,21.73
2018-01-21T12:15:10.744Z,21.77
2018-01-21T12:16:10.768Z,21.73
2018-01-21T12:17:11.153Z,21.70
2018-01-21T12:18:10.846Z,21.77
2018-01-21T12:19:11.816Z,21.75
2018-01-21T12:21:10.928Z,21.83
2018-01-21T12:22:10.967Z,21.74
2018-01-21T12:23:11.358Z,21.83
2018-01-21T12:24:11.427Z,21.85
2018-01-21T12:25:11.064Z,21.89
2018-01-21T12:28:11.153Z,21.82
2018-01-21T12:29:11.387Z,21.90
2018-01-21T12:31:11.601Z,21.90
2018-01-21T12:32:11.281Z,21.86
2018-01-21T12:33:11.313Z,21.90
2018-01-21T12:34:11.369Z,21.83
2018-01-21T12:35:11.397Z,21.90
2018-01-21T12:36:11.408Z,21.91
2018-01-21T12:37:11.796Z,21.91
2018-01-21T12:38:11.478Z,21.91
2018-01-21T12:39:11.558Z,21.91
2018-01-21T12:40:11.547Z,21.93
2018-01-21T12:41:11.570Z,21.98
2018-01-21T12:42:11.616Z,21.91
2018-01-21T12:43:13.174Z,21.89
2018-01-21T12:44:12.021Z,21.90
2018-01-21T12:46:11.749Z,21.85
2018-01-21T12:47:11.769Z,21.93
2018-01-21T12:48:11.800Z,21.94
2018-01-21T12:49:11.841Z,21.90
2018-01-21T12:50:11.867Z,21.86
2018-01-21T12:51:12.244Z,21.81
2018-01-21T12:52:11.973Z,21.81
2018-01-21T12:53:11.961Z,21.83
2018-01-21T12:54:12.004Z,21.82
2018-01-21T12:55:12.020Z,21.82
2018-01-21T12:56:12.049Z,21.82
2018-01-21T12:57:12.098Z,21.79
2018-01-21T12:58:12.478Z,21.73
2018-01-21T12:59:12.147Z,21.77
2018-01-21T13:00:12.181Z,21.81
2018-01-21T13:01:12.232Z,21.70
2018-01-21T13:03:12.280Z,21.79
2018-01-21T13:04:12.307Z,21.70
2018-01-21T13:05:12.707Z,21.67
2018-01-21T13:06:12.417Z,21.73
2018-01-21T13:07:12.398Z,21.70
2018-01-21T13:08:12.645Z,21.75
2018-01-21T13:09:12.668Z,21.71
2018-01-21T13:11:12.532Z,21.67
2018-01-21T13:12:13.018Z,21.64
2018-01-21T13:13:13.682Z,21.64
2018-01-21T13:15:12.656Z,21.73
2018-01-21T13:16:12.687Z,21.68
2018-01-21T13:17:12.718Z,21.61
2018-01-21T13:18:12.756Z,21.61
2018-01-21T13:19:13.131Z,21.67
2018-01-21T13:20:14.079Z,21.61
2018-01-21T13:21:12.853Z,21.61
2018-01-21T13:22:12.880Z,21.59
2018-01-21T13:23:12.960Z,21.56
2018-01-21T13:24:13.032Z,21.64
2018-01-21T13:25:12.974Z,21.61
2018-01-21T13:26:13.497Z,21.53
2018-01-21T13:27:13.037Z,21.56
2018-01-21T13:28:13.238Z,21.56
2018-01-21T13:29:13.097Z,21.56
2018-01-21T13:30:13.213Z,21.53
2018-01-21T13:31:13.166Z,21.59
2018-01-21T13:32:13.194Z,21.53
2018-01-21T13:33:13.576Z,21.53
2018-01-21T13:34:13.263Z,21.52
2018-01-21T13:35:13.292Z,21.55
2018-01-21T13:36:13.321Z,21.55
2018-01-21T13:37:13.368Z,21.53
2018-01-21T13:38:13.386Z,21.49
2018-01-21T13:39:13.469Z,21.56
2018-01-21T13:40:13.747Z,21.53